createdAt,value
2023-10-11T00:01:43.867Z,6.95
2023-10-11T00:04:24.902Z,7.40
2023-10-11T00:06:51.928Z,7.53
2023-10-11T00:09:18.854Z,7.63
2023-10-11T00:11:46.337Z,7.35
2023-10-11T00:14:14.834Z,7.65
2023-10-11T00:16:41.325Z,7.55
2023-10-11T00:21:43.698Z,7.60
2023-10-11T00:24:10.533Z,7.68
2023-10-11T00:26:41.316Z,7.50
2023-10-11T00:29:10.480Z,7.50
2023-10-11T00:31:37.046Z,7.75
2023-10-11T00:36:32.162Z,8.38
2023-10-11T00:38:58.613Z,8.75
2023-10-11T00:43:58.491Z,8.10
2023-10-11T00:46:50.927Z,7.78
2023-10-11T00:49:17.789Z,7.93
2023-10-11T00:51:48.033Z,7.82
2023-10-11T00:54:17.112Z,7.70
2023-10-11T00:56:45.097Z,8.98
2023-10-11T00:59:16.121Z,7.88
2023-10-11T01:01:43.818Z,8.40
2023-10-11T01:04:11.865Z,9.07
2023-10-11T01:06:39.006Z,8.73
2023-10-11T01:09:10.726Z,8.05
2023-10-11T01:11:37.385Z,9.18
2023-10-11T01:14:03.857Z,8.95
2023-10-11T01:18:56.742Z,9.40
2023-10-11T01:23:49.871Z,8.10
2023-10-11T01:26:16.471Z,8.30
2023-10-11T01:31:10.161Z,9.32
2023-10-11T01:33:43.321Z,9.63
2023-10-11T01:36:13.729Z,9.50
2023-10-11T01:38:50.640Z,8.75
2023-10-11T01:41:19.710Z,9.32
2023-10-11T01:43:51.310Z,9.27
2023-10-11T01:46:28.611Z,9.77
2023-10-11T01:48:56.294Z,10.10
2023-10-11T01:51:28.995Z,10.18
2023-10-11T01:53:56.392Z,9.32
2023-10-11T01:56:27.439Z,9.73
2023-10-11T01:58:54.455Z,9.43
2023-10-11T02:01:25.464Z,9.75
2023-10-11T02:03:55.038Z,9.90
2023-10-11T02:06:21.761Z,9.95
2023-10-11T02:08:48.244Z,10.10
2023-10-11T02:13:44.316Z,9.07
2023-10-11T02:16:13.102Z,9.77
2023-10-11T02:18:40.548Z,10.00
2023-10-11T02:21:08.035Z,9.75
2023-10-11T02:23:43.647Z,9.63
2023-10-11T02:26:17.854Z,10.10
2023-10-11T02:28:44.940Z,9.38
2023-10-11T02:31:14.785Z,9.75
2023-10-11T02:33:41.553Z,10.35
2023-10-11T02:36:18.386Z,9.60
2023-10-11T02:38:48.872Z,9.52
2023-10-11T02:41:22.087Z,10.32
2023-10-11T02:43:51.463Z,10.10
2023-10-11T02:46:18.360Z,9.90
2023-10-11T02:48:49.168Z,10.05
2023-10-11T02:51:18.785Z,10.15
2023-10-11T02:53:45.804Z,10.50
2023-10-11T02:58:42.136Z,10.20
2023-10-11T03:01:23.917Z,9.93
2023-10-11T03:03:53.920Z,9.90
2023-10-11T03:06:23.462Z,10.30
2023-10-11T03:08:52.676Z,10.23
2023-10-11T03:11:19.369Z,12.05
2023-10-11T03:16:18.170Z,10.15
2023-10-11T03:18:47.862Z,10.30
2023-10-11T03:21:18.902Z,10.38
2023-10-11T03:23:46.864Z,10.38
2023-10-11T03:26:32.019Z,10.77
2023-10-11T03:28:59.779Z,10.53
2023-10-11T03:31:29.325Z,10.55
2023-10-11T03:34:00.374Z,11.20
2023-10-11T03:36:31.988Z,10.18
2023-10-11T03:38:59.207Z,10.85
2023-10-11T03:41:31.622Z,10.45
2023-10-11T03:44:18.149Z,10.77
2023-10-11T03:47:05.589Z,12.13
2023-10-11T03:49:32.082Z,11.27
2023-10-11T03:54:25.089Z,10.90
2023-10-11T03:56:55.449Z,11.18
2023-10-11T03:59:22.411Z,10.18
2023-10-11T04:01:51.000Z,10.70
2023-10-11T04:04:18.129Z,10.48
2023-10-11T04:06:51.835Z,10.88
2023-10-11T04:09:33.175Z,10.75
2023-10-11T04:12:04.700Z,10.90
2023-10-11T04:14:40.643Z,11.20
2023-10-11T04:17:07.901Z,11.00
2023-10-11T04:19:36.167Z,11.27
2023-10-11T04:22:13.340Z,11.77
2023-10-11T04:24:41.711Z,12.75
2023-10-11T04:27:23.474Z,11.50
2023-10-11T04:29:53.104Z,12.20
2023-10-11T04:32:39.946Z,12.18
2023-10-11T04:35:25.486Z,11.85
2023-10-11T04:38:02.507Z,12.50
2023-10-11T04:40:35.274Z,11.88
2023-10-11T04:43:06.193Z,12.82
2023-10-11T04:45:55.882Z,11.63
2023-10-11T04:48:38.882Z,12.93
2023-10-11T04:51:08.549Z,12.98
2023-10-11T04:53:36.644Z,13.00
2023-10-11T04:56:32.075Z,13.13
2023-10-11T04:59:07.184Z,12.07
2023-10-11T05:01:54.422Z,12.77
2023-10-11T05:04:31.831Z,12.65
2023-10-11T05:06:58.720Z,12.57
2023-10-11T05:09:39.289Z,13.35
2023-10-11T05:12:10.475Z,12.57
2023-10-11T05:14:40.919Z,13.20
2023-10-11T05:17:17.152Z,13.27
2023-10-11T05:22:18.700Z,12.82
2023-10-11T05:24:55.568Z,12.38
2023-10-11T05:27:34.366Z,12.95
2023-10-11T05:30:10.696Z,13.15
2023-10-11T05:32:51.330Z,13.30
2023-10-11T05:35:22.481Z,13.45
2023-10-11T05:38:09.646Z,13.35
2023-10-11T05:40:54.943Z,13.32
2023-10-11T05:43:40.052Z,12.30
2023-10-11T05:46:25.536Z,12.93
2023-10-11T05:49:10.913Z,13.27
2023-10-11T05:51:40.957Z,12.80
2023-10-11T05:54:11.138Z,14.65
2023-10-11T05:56:41.157Z,12.38
2023-10-11T05:59:11.423Z,13.70
2023-10-11T06:01:38.309Z,13.43
2023-10-11T06:04:09.289Z,13.57
2023-10-11T06:06:43.766Z,13.13
2023-10-11T06:09:18.259Z,13.55
2023-10-11T06:11:51.773Z,13.98
2023-10-11T06:14:18.809Z,14.13
2023-10-11T06:16:50.882Z,13.27
2023-10-11T06:19:18.067Z,13.30
2023-10-11T06:21:57.493Z,15.48
2023-10-11T06:24:24.994Z,13.25
2023-10-11T06:26:55.031Z,14.35
2023-10-11T06:29:25.149Z,14.20
2023-10-11T06:32:05.289Z,14.20
2023-10-11T06:34:40.294Z,13.13
2023-10-11T06:39:41.925Z,12.43
2023-10-11T06:42:15.889Z,12.88
2023-10-11T06:44:48.435Z,12.98
2023-10-11T06:47:19.760Z,13.38
2023-10-11T06:49:50.472Z,13.25
2023-10-11T06:52:26.157Z,13.13
2023-10-11T06:55:14.371Z,14.18
2023-10-11T06:57:41.294Z,13.93
2023-10-11T07:00:13.731Z,13.35
2023-10-11T07:02:48.446Z,13.85
2023-10-11T07:05:19.017Z,14.32
2023-10-11T07:07:53.115Z,14.38
2023-10-11T07:10:29.841Z,14.20
2023-10-11T07:13:06.465Z,14.68
2023-10-11T07:15:39.925Z,13.77
2023-10-11T07:18:09.686Z,14.60
2023-10-11T07:20:49.100Z,14.23
2023-10-11T07:23:22.192Z,14.70
2023-10-11T07:25:49.617Z,13.57
2023-10-11T07:28:36.295Z,14.02
2023-10-11T07:31:05.959Z,13.70
2023-10-11T07:33:32.890Z,13.65
2023-10-11T07:36:00.467Z,14.32
2023-10-11T07:38:34.597Z,14.15
2023-10-11T07:41:18.427Z,14.23
2023-10-11T07:43:48.087Z,13.98
2023-10-11T07:46:15.062Z,13.98
2023-10-11T07:48:42.556Z,14.70
2023-10-11T07:51:11.020Z,14.40
2023-10-11T07:53:44.557Z,15.13
2023-10-11T07:56:11.132Z,13.90
2023-10-11T07:58:46.230Z,14.85
2023-10-11T08:01:39.551Z,15.38
2023-10-11T08:04:09.937Z,15.65
2023-10-11T08:06:40.838Z,16.00
2023-10-11T08:09:07.729Z,15.20
2023-10-11T08:11:54.076Z,16.58
2023-10-11T08:14:23.768Z,14.50
2023-10-11T08:16:50.581Z,15.52
2023-10-11T08:19:17.396Z,15.68
2023-10-11T08:21:55.750Z,17.90
2023-10-11T08:24:27.382Z,15.90
2023-10-11T08:26:54.299Z,16.00
2023-10-11T08:29:31.252Z,15.77
2023-10-11T08:31:58.818Z,16.10
2023-10-11T08:34:28.999Z,16.40
2023-10-11T08:36:57.232Z,16.95
2023-10-11T08:39:36.355Z,17.13
2023-10-11T08:42:07.411Z,18.13
2023-10-11T08:44:33.960Z,16.23
2023-10-11T08:49:26.762Z,17.00
2023-10-11T08:54:26.771Z,18.08
2023-10-11T08:56:58.653Z,17.55
2023-10-11T08:59:32.069Z,18.52
2023-10-11T09:02:08.503Z,19.95
2023-10-11T09:04:36.688Z,19.23
2023-10-11T09:07:03.458Z,18.75
2023-10-11T09:09:54.964Z,20.42
2023-10-11T09:12:28.828Z,20.17
2023-10-11T09:14:59.632Z,20.48
2023-10-11T09:17:28.228Z,21.60
2023-10-11T09:20:00.902Z,19.83
2023-10-11T09:22:29.234Z,21.15
2023-10-11T09:25:22.645Z,19.55
2023-10-11T09:27:52.526Z,20.38
2023-10-11T09:30:25.149Z,21.30
2023-10-11T09:33:00.368Z,20.88
2023-10-11T09:35:28.462Z,21.73
2023-10-11T09:37:58.635Z,22.15
2023-10-11T09:40:35.220Z,22.23
2023-10-11T09:43:01.942Z,21.35
2023-10-11T09:45:30.256Z,21.40
2023-10-11T09:47:58.071Z,21.83
2023-10-11T09:50:25.605Z,21.92
2023-10-11T09:52:53.378Z,20.70
2023-10-11T09:55:34.074Z,22.48
2023-10-11T09:58:05.679Z,22.80
2023-10-11T10:00:38.858Z,22.63
2023-10-11T10:03:09.097Z,21.23
2023-10-11T10:05:54.508Z,20.65
2023-10-11T10:08:20.874Z,21.30
2023-10-11T10:10:54.351Z,20.27
2023-10-11T10:13:25.626Z,20.00
2023-10-11T10:15:54.477Z,20.42
2023-10-11T10:18:21.830Z,20.00
2023-10-11T10:20:57.842Z,18.85
2023-10-11T10:23:28.894Z,19.95
2023-10-11T10:26:04.435Z,18.40
2023-10-11T10:28:37.116Z,17.77
2023-10-11T10:31:13.558Z,18.42
2023-10-11T10:33:40.874Z,18.60
2023-10-11T10:36:30.841Z,18.30
2023-10-11T10:39:09.958Z,17.85
2023-10-11T10:41:43.154Z,17.58
2023-10-11T10:44:11.018Z,16.38
2023-10-11T10:46:38.204Z,16.00
2023-10-11T10:49:04.899Z,16.17
2023-10-11T10:51:38.639Z,14.10
2023-10-11T10:54:14.443Z,14.30
2023-10-11T10:56:44.012Z,14.18
2023-10-11T10:59:26.180Z,13.05
2023-10-11T11:01:54.272Z,12.85
2023-10-11T11:04:28.432Z,13.32
2023-10-11T11:06:57.041Z,13.85
2023-10-11T11:09:30.306Z,11.88
2023-10-11T11:12:10.281Z,11.60
2023-10-11T11:14:38.046Z,11.35
2023-10-11T11:17:10.791Z,11.07
2023-10-11T11:19:37.542Z,10.75
2023-10-11T11:22:14.156Z,10.23
2023-10-11T11:24:43.029Z,10.43
2023-10-11T11:27:16.241Z,10.45
2023-10-11T11:29:44.020Z,9.43
2023-10-11T11:32:17.585Z,9.48
2023-10-11T11:35:03.360Z,9.70
2023-10-11T11:37:34.344Z,8.45
2023-10-11T11:40:20.544Z,8.18
2023-10-11T11:42:49.804Z,7.60
2023-10-11T11:45:16.896Z,8.02
2023-10-11T11:47:58.762Z,7.40
2023-10-11T11:50:36.741Z,7.63
2023-10-11T11:53:04.297Z,7.13
2023-10-11T11:55:33.138Z,7.07
2023-10-11T11:57:59.926Z,6.18
2023-10-11T12:00:28.656Z,6.60
2023-10-11T12:02:57.140Z,5.97
2023-10-11T12:05:24.347Z,6.78
2023-10-11T12:07:53.078Z,6.68
2023-10-11T12:10:33.968Z,6.68
2023-10-11T12:13:11.182Z,6.95
2023-10-11T12:15:37.741Z,8.00
2023-10-11T12:18:06.607Z,8.13
2023-10-11T12:20:37.524Z,7.82
2023-10-11T12:23:13.960Z,8.25
2023-10-11T12:25:40.590Z,8.43
2023-10-11T12:28:07.717Z,7.82
2023-10-11T12:30:37.913Z,8.18
2023-10-11T12:33:08.028Z,8.35
2023-10-11T12:35:36.731Z,8.18
2023-10-11T12:38:03.656Z,8.63
2023-10-11T12:40:30.132Z,8.32
2023-10-11T12:43:08.137Z,9.18
2023-10-11T12:45:36.146Z,9.05
2023-10-11T12:48:11.338Z,8.77
2023-10-11T12:50:38.547Z,9.30
2023-10-11T12:53:11.348Z,8.93
2023-10-11T12:55:43.366Z,9.35
2023-10-11T12:58:16.281Z,8.98
2023-10-11T13:00:59.143Z,9.73
2023-10-11T13:04:11.468Z,9.00
2023-10-11T13:06:50.968Z,8.55
2023-10-11T13:12:22.664Z,8.43
2023-10-11T13:15:20.606Z,8.40
2023-10-11T13:17:54.352Z,9.98
2023-10-11T13:20:37.244Z,10.10
2023-10-11T13:23:27.490Z,10.98
2023-10-11T13:29:32.171Z,11.93
2023-10-11T13:32:05.353Z,11.63
2023-10-11T13:34:34.823Z,12.38
2023-10-11T13:37:02.065Z,12.13
2023-10-11T13:39:28.964Z,11.93
2023-10-11T13:42:05.423Z,11.60
2023-10-11T13:44:38.258Z,11.35
2023-10-11T13:47:05.449Z,12.98
2023-10-11T13:49:34.605Z,11.93
2023-10-11T13:52:05.157Z,11.88
2023-10-11T13:54:43.373Z,11.52
2023-10-11T13:57:19.864Z,11.60
2023-10-11T13:59:48.067Z,12.23
2023-10-11T14:02:34.676Z,11.43
2023-10-11T14:05:05.789Z,11.93
2023-10-11T14:07:37.989Z,11.60
2023-10-11T14:10:18.122Z,13.30
2023-10-11T14:12:45.123Z,12.23
2023-10-11T14:15:25.347Z,12.88
2023-10-11T14:17:52.008Z,13.15
2023-10-11T14:20:23.599Z,12.23
2023-10-11T14:22:50.809Z,12.85
2023-10-11T14:25:20.026Z,12.90
2023-10-11T14:27:49.534Z,12.52
2023-10-11T14:30:16.165Z,12.52
2023-10-11T14:32:43.542Z,13.38
2023-10-11T14:35:10.309Z,13.30
2023-10-11T14:37:37.341Z,13.20
2023-10-11T14:40:16.320Z,12.88
2023-10-11T14:42:44.390Z,13.25
2023-10-11T14:45:13.461Z,13.45
2023-10-11T14:47:40.567Z,13.23
2023-10-11T14:50:12.263Z,13.60
2023-10-11T14:52:42.948Z,12.18
2023-10-11T14:55:10.336Z,14.13
2023-10-11T14:57:36.877Z,13.98
2023-10-11T15:00:07.579Z,14.07
2023-10-11T15:02:34.722Z,14.15
2023-10-11T15:05:01.160Z,14.20
2023-10-11T15:07:27.957Z,15.68
2023-10-11T15:09:55.504Z,16.27
2023-10-11T15:12:22.000Z,16.55
2023-10-11T15:14:48.877Z,17.17
2023-10-11T15:17:15.470Z,17.73
2023-10-11T15:19:42.249Z,18.00
2023-10-11T15:22:14.058Z,18.67
2023-10-11T15:24:40.701Z,17.45
2023-10-11T15:27:07.436Z,17.92
2023-10-11T15:29:34.007Z,19.20
2023-10-11T15:32:00.437Z,19.27
2023-10-11T15:34:27.681Z,19.55
2023-10-11T15:36:54.701Z,18.25
2023-10-11T15:39:21.245Z,19.58
2023-10-11T15:41:47.659Z,20.15
2023-10-11T15:44:16.441Z,18.55
2023-10-11T15:46:43.770Z,18.70
2023-10-11T15:49:10.292Z,19.63
2023-10-11T15:51:36.756Z,20.15
2023-10-11T15:54:03.487Z,19.88
2023-10-11T15:56:33.195Z,19.73
2023-10-11T15:59:00.215Z,19.35
2023-10-11T16:01:28.647Z,19.13
2023-10-11T16:03:57.105Z,18.95
2023-10-11T16:06:36.143Z,20.45
2023-10-11T16:09:15.298Z,19.02
2023-10-11T16:11:42.188Z,19.27
2023-10-11T16:14:08.648Z,20.25
2023-10-11T16:16:40.168Z,20.02
2023-10-11T16:19:06.674Z,19.92
2023-10-11T16:21:35.305Z,18.92
2023-10-11T16:24:02.016Z,19.10
2023-10-11T16:26:30.326Z,19.65
2023-10-11T16:28:57.173Z,18.98
2023-10-11T16:31:23.793Z,19.50
2023-10-11T16:33:53.973Z,18.75
2023-10-11T16:36:21.217Z,18.98
2023-10-11T16:38:47.860Z,18.08
2023-10-11T16:41:14.388Z,19.42
2023-10-11T16:43:41.910Z,20.10
2023-10-11T16:46:27.840Z,20.38
2023-10-11T16:48:55.935Z,19.48
2023-10-11T16:54:08.934Z,18.17
2023-10-11T16:57:06.081Z,19.58
2023-10-11T16:59:46.055Z,19.70
2023-10-11T17:02:25.018Z,19.40
2023-10-11T17:05:01.354Z,20.52
2023-10-11T17:07:34.975Z,19.98
2023-10-11T17:10:12.322Z,19.58
2023-10-11T17:12:52.749Z,18.73
2023-10-11T17:18:23.501Z,19.25
2023-10-11T17:21:08.076Z,18.45
2023-10-11T17:24:06.514Z,19.95
2023-10-11T17:29:49.419Z,18.58
2023-10-11T17:32:50.259Z,18.70
2023-10-11T17:35:23.792Z,18.83
2023-10-11T17:38:13.278Z,19.25
2023-10-11T17:40:55.309Z,17.88
2023-10-11T17:43:37.573Z,17.73
2023-10-11T17:46:10.603Z,18.05
2023-10-11T17:48:38.116Z,17.42
2023-10-11T17:51:08.398Z,17.38
2023-10-11T17:53:36.933Z,16.13
2023-10-11T17:56:06.481Z,17.00
2023-10-11T17:58:34.509Z,16.98
2023-10-11T18:01:02.278Z,16.38
2023-10-11T18:03:29.261Z,16.02
2023-10-11T18:05:56.885Z,16.88
2023-10-11T18:08:24.090Z,14.77
2023-10-11T18:10:50.702Z,14.85
2023-10-11T18:13:17.439Z,13.88
2023-10-11T18:15:48.236Z,13.02
2023-10-11T18:18:15.224Z,12.45
2023-10-11T18:20:41.690Z,12.10
2023-10-11T18:23:09.749Z,12.90
2023-10-11T18:25:36.706Z,10.90
2023-10-11T18:28:06.419Z,10.70
2023-10-11T18:30:33.970Z,10.73
2023-10-11T18:33:01.438Z,10.18
2023-10-11T18:35:28.025Z,10.32
2023-10-11T18:37:54.671Z,10.57
2023-10-11T18:40:21.798Z,10.32
2023-10-11T18:42:50.952Z,9.68
2023-10-11T18:45:18.576Z,9.23
2023-10-11T18:47:45.748Z,10.63
2023-10-11T18:50:12.786Z,10.20
2023-10-11T18:52:41.193Z,10.18
2023-10-11T18:55:11.030Z,9.95
2023-10-11T18:57:38.377Z,9.70
2023-10-11T19:00:15.228Z,10.32
2023-10-11T19:02:43.166Z,9.85
2023-10-11T19:05:13.313Z,9.82
2023-10-11T19:07:40.172Z,9.73
2023-10-11T19:10:13.681Z,10.38
2023-10-11T19:12:43.363Z,10.82
2023-10-11T19:15:10.257Z,9.52
2023-10-11T19:17:37.429Z,9.48
2023-10-11T19:20:15.218Z,9.65
2023-10-11T19:22:47.186Z,10.25
2023-10-11T19:25:18.915Z,10.45
2023-10-11T19:27:46.361Z,9.73
2023-10-11T19:30:18.078Z,9.98
2023-10-11T19:32:45.192Z,9.40
2023-10-11T19:35:15.668Z,10.18
2023-10-11T19:37:44.067Z,10.38
2023-10-11T19:40:16.616Z,9.90
2023-10-11T19:42:45.272Z,10.18
2023-10-11T19:45:19.500Z,9.95
2023-10-11T19:47:51.076Z,10.02
2023-10-11T19:50:18.469Z,9.82
2023-10-11T19:52:45.836Z,10.93
2023-10-11T19:55:14.439Z,10.18
2023-10-11T19:57:41.521Z,10.32
2023-10-11T20:00:11.763Z,10.32
2023-10-11T20:02:38.499Z,10.60
2023-10-11T20:05:05.125Z,11.52
2023-10-11T20:07:32.689Z,10.90
2023-10-11T20:10:00.408Z,11.23
2023-10-11T20:12:26.896Z,11.20
2023-10-11T20:14:53.605Z,11.18
2023-10-11T20:17:20.062Z,10.90
2023-10-11T20:22:13.878Z,10.80
2023-10-11T20:24:40.500Z,10.90
2023-10-11T20:27:08.407Z,11.35
2023-10-11T20:29:35.221Z,10.50
2023-10-11T20:32:01.669Z,11.50
2023-10-11T20:34:28.125Z,10.93
2023-10-11T20:39:23.819Z,10.93
2023-10-11T20:41:50.605Z,11.07
2023-10-11T20:44:18.258Z,11.50
2023-10-11T20:46:45.192Z,10.98
2023-10-11T20:49:14.719Z,10.88
2023-10-11T20:51:42.476Z,11.18
2023-10-11T20:54:12.716Z,10.40
2023-10-11T20:56:39.809Z,10.95
2023-10-11T20:59:15.538Z,10.88
2023-10-11T21:01:42.739Z,11.05
2023-10-11T21:04:09.231Z,10.48
2023-10-11T21:09:05.277Z,10.90
2023-10-11T21:11:33.398Z,10.38
2023-10-11T21:14:01.197Z,9.88
2023-10-11T21:16:28.044Z,11.35
2023-10-11T21:18:57.083Z,11.27
2023-10-11T21:21:24.641Z,11.00
2023-10-11T21:23:52.086Z,10.73
2023-10-11T21:26:22.428Z,11.00
2023-10-11T21:28:53.550Z,11.20
2023-10-11T21:31:21.370Z,10.68
2023-10-11T21:33:48.272Z,11.43
2023-10-11T21:36:16.920Z,11.25
2023-10-11T21:38:45.694Z,11.18
2023-10-11T21:41:12.786Z,10.52
2023-10-11T21:43:41.583Z,10.60
2023-10-11T21:46:11.849Z,10.93
2023-10-11T21:48:39.863Z,10.40
2023-10-11T21:51:14.338Z,10.52
2023-10-11T21:53:41.419Z,11.23
2023-10-11T21:56:08.545Z,10.95
2023-10-11T21:58:35.030Z,9.98
2023-10-11T22:01:22.487Z,11.07
2023-10-11T22:03:50.000Z,10.70
2023-10-11T22:06:19.791Z,10.68
2023-10-11T22:08:49.577Z,11.10
2023-10-11T22:11:17.630Z,10.38
2023-10-11T22:13:45.508Z,9.90
2023-10-11T22:16:12.639Z,10.02
2023-10-11T22:18:41.545Z,10.10
2023-10-11T22:21:13.161Z,10.65
2023-10-11T22:23:40.423Z,11.10
2023-10-11T22:26:06.816Z,10.13
2023-10-11T22:31:00.413Z,10.13
2023-10-11T22:33:27.018Z,9.90
2023-10-11T22:35:53.766Z,10.80
2023-10-11T22:38:23.414Z,11.55
2023-10-11T22:40:51.485Z,10.40
2023-10-11T22:43:29.769Z,11.13
2023-10-11T22:45:58.015Z,11.60
2023-10-11T22:48:25.468Z,12.00
2023-10-11T22:50:52.859Z,12.48
2023-10-11T22:53:19.434Z,11.35
2023-10-11T22:58:19.289Z,11.77
2023-10-11T23:00:46.378Z,11.25
2023-10-11T23:05:41.746Z,10.93
2023-10-11T23:08:08.214Z,11.93
2023-10-11T23:13:10.027Z,12.52
2023-10-11T23:18:15.819Z,12.43
2023-10-11T23:20:59.016Z,12.75
2023-10-11T23:23:42.414Z,13.45
2023-10-11T23:26:09.557Z,13.07
2023-10-11T23:28:37.002Z,13.77
2023-10-11T23:31:04.296Z,14.25
2023-10-11T23:33:36.911Z,14.13
2023-10-11T23:36:07.523Z,13.85
2023-10-11T23:38:43.567Z,14.30
2023-10-11T23:41:18.759Z,13.95
2023-10-11T23:43:47.748Z,15.43
2023-10-11T23:46:16.662Z,14.60
2023-10-11T23:48:45.756Z,15.40
2023-10-11T23:51:16.442Z,15.02
2023-10-11T23:53:46.481Z,16.42
2023-10-11T23:56:19.501Z,16.98
2023-10-11T23:58:47.276Z,16.13
